createdAt,value
2023-05-21T00:00:11.638Z,9.667986
2023-05-21T00:01:11.632Z,9.667973
2023-05-21T00:02:11.646Z,9.667965
2023-05-21T00:03:11.703Z,9.667942
2023-05-21T00:04:11.720Z,9.667946
2023-05-21T00:05:14.375Z,9.667962
2023-05-21T00:06:12.674Z,9.667994
2023-05-21T00:07:11.582Z,9.667970
2023-05-21T00:08:11.558Z,9.667968
2023-05-21T00:09:11.584Z,9.667993
2023-05-21T00:10:11.610Z,9.668019
2023-05-21T00:11:11.571Z,9.667994
2023-05-21T00:12:11.532Z,9.667974
2023-05-21T00:13:11.515Z,9.668025
2023-05-21T00:14:11.558Z,9.667975
2023-05-21T00:15:11.527Z,9.667972
2023-05-21T00:16:11.631Z,9.667994
2023-05-21T00:17:11.500Z,9.668015
2023-05-21T00:18:11.557Z,9.667990
2023-05-21T00:19:11.505Z,9.668006
2023-05-21T00:20:11.485Z,9.668021
2023-05-21T00:21:11.490Z,9.668028
2023-05-21T00:22:11.444Z,9.668046
2023-05-21T00:23:11.449Z,9.668010
2023-05-21T00:24:11.470Z,9.667957
2023-05-21T00:25:11.449Z,9.667958
2023-05-21T00:26:11.457Z,9.667976
2023-05-21T00:27:11.441Z,9.667944
2023-05-21T00:28:11.401Z,9.667954
2023-05-21T00:29:11.406Z,9.667989
2023-05-21T00:30:11.429Z,9.668026
2023-05-21T00:31:11.441Z,9.667976
2023-05-21T00:32:11.426Z,9.667916
2023-05-21T00:33:11.405Z,9.667963
2023-05-21T00:34:11.356Z,9.668018
2023-05-21T00:35:11.397Z,9.667936
2023-05-21T00:36:11.380Z,9.667939
2023-05-21T00:37:11.358Z,9.667982
2023-05-21T00:38:11.311Z,9.667998
2023-05-21T00:39:11.330Z,9.667970
2023-05-21T00:40:11.341Z,9.667984
2023-05-21T00:41:11.281Z,9.667980
2023-05-21T00:42:11.310Z,9.667960
2023-05-21T00:43:11.304Z,9.667972
2023-05-21T00:44:11.274Z,9.667996
2023-05-21T00:45:11.309Z,9.667965
2023-05-21T00:46:11.362Z,9.667978
2023-05-21T00:47:11.290Z,9.667957
2023-05-21T00:48:11.222Z,9.667968
2023-05-21T00:49:11.284Z,9.667988
2023-05-21T00:50:11.227Z,9.667972
2023-05-21T00:51:11.246Z,9.667974
2023-05-21T00:52:11.224Z,9.667939
2023-05-21T00:53:11.187Z,9.667929
2023-05-21T00:54:11.224Z,9.667963
2023-05-21T00:55:11.215Z,9.667993
2023-05-21T00:56:11.174Z,9.667962
2023-05-21T00:57:11.190Z,9.667979
2023-05-21T00:58:11.151Z,9.667969
2023-05-21T00:59:11.161Z,9.667979
2023-05-21T01:00:11.259Z,9.667986
2023-05-21T01:01:11.270Z,9.667974
2023-05-21T01:02:11.249Z,9.667967
2023-05-21T01:03:11.334Z,9.667973
2023-05-21T01:04:11.110Z,9.667986
2023-05-21T01:05:11.127Z,9.668006
2023-05-21T01:06:11.089Z,9.667978
2023-05-21T01:07:11.096Z,9.668023
2023-05-21T01:08:11.101Z,9.668015
2023-05-21T01:09:11.111Z,9.667980
2023-05-21T01:10:11.100Z,9.668014
2023-05-21T01:11:11.064Z,9.667978
2023-05-21T01:12:11.066Z,9.667974
2023-05-21T01:13:11.100Z,9.667976
2023-05-21T01:14:11.073Z,9.667987
2023-05-21T01:15:11.041Z,9.668006
2023-05-21T01:16:11.030Z,9.667982
2023-05-21T01:17:11.205Z,9.667993
2023-05-21T01:18:11.026Z,9.667995
2023-05-21T01:19:11.151Z,9.667984
2023-05-21T01:20:43.467Z,9.668006
2023-05-21T01:21:10.966Z,9.667971
2023-05-21T01:22:43.522Z,9.667981
2023-05-21T01:23:43.397Z,9.667956
2023-05-21T01:24:10.937Z,9.668022
2023-05-21T01:25:43.572Z,9.668008
2023-05-21T01:26:42.894Z,9.667968
2023-05-21T01:27:10.941Z,9.667976
2023-05-21T01:28:10.920Z,9.667948
2023-05-21T01:29:10.925Z,9.667980
2023-05-21T01:30:10.930Z,9.667995
2023-05-21T01:31:10.882Z,9.667995
2023-05-21T01:32:10.880Z,9.667994
2023-05-21T01:33:11.099Z,9.667945
2023-05-21T01:34:10.966Z,9.668003
2023-05-21T01:35:10.865Z,9.667987
2023-05-21T01:36:11.858Z,9.667948
2023-05-21T01:37:10.907Z,9.667953
2023-05-21T01:38:10.821Z,9.667970
2023-05-21T01:39:10.889Z,9.667990
2023-05-21T01:40:11.872Z,9.667980
2023-05-21T01:41:10.884Z,9.667966
2023-05-21T01:42:10.814Z,9.667927
2023-05-21T01:43:10.797Z,9.667886
2023-05-21T01:44:10.800Z,9.667948
2023-05-21T01:45:10.827Z,9.667956
2023-05-21T01:46:10.829Z,9.667881
2023-05-21T01:47:10.766Z,9.667969
2023-05-21T01:48:10.788Z,9.667968
2023-05-21T01:49:10.776Z,9.667970
2023-05-21T01:50:10.805Z,9.667908
2023-05-21T01:51:10.792Z,9.668089
2023-05-21T01:52:10.766Z,9.667999
2023-05-21T01:53:10.730Z,9.667989
2023-05-21T01:54:10.722Z,9.667908
2023-05-21T01:55:10.706Z,9.667894
2023-05-21T01:56:10.734Z,9.667894
2023-05-21T01:57:10.727Z,9.667974
2023-05-21T01:58:10.697Z,9.667929
2023-05-21T01:59:10.727Z,9.667922
2023-05-21T02:00:10.701Z,9.667987
2023-05-21T02:01:11.250Z,9.668006
2023-05-21T02:02:10.862Z,9.667978
2023-05-21T02:03:10.804Z,9.667925
2023-05-21T02:04:10.680Z,9.668004
2023-05-21T02:05:10.616Z,9.667994
2023-05-21T02:06:10.650Z,9.667960
2023-05-21T02:07:10.625Z,9.667932
2023-05-21T02:08:10.620Z,9.667961
2023-05-21T02:09:10.592Z,9.668018
2023-05-21T02:10:10.607Z,9.667993
2023-05-21T02:11:10.628Z,9.668106
2023-05-21T02:12:10.578Z,9.668079
2023-05-21T02:13:10.562Z,9.668020
2023-05-21T02:14:10.584Z,9.667952
2023-05-21T02:15:10.546Z,9.668003
2023-05-21T02:16:10.598Z,9.667941
2023-05-21T02:17:10.530Z,9.667942
2023-05-21T02:18:10.590Z,9.667927
2023-05-21T02:19:10.631Z,9.667964
2023-05-21T02:20:10.574Z,9.667995
2023-05-21T02:21:10.511Z,9.668017
2023-05-21T02:22:10.530Z,9.667993
2023-05-21T02:23:10.495Z,9.667965
2023-05-21T02:24:10.471Z,9.668077
2023-05-21T02:25:10.490Z,9.667976
2023-05-21T02:26:10.516Z,9.667908
2023-05-21T02:27:10.484Z,9.668023
2023-05-21T02:28:10.502Z,9.667933
2023-05-21T02:29:10.466Z,9.667919
2023-05-21T02:30:10.446Z,9.667962
2023-05-21T02:31:10.450Z,9.667972
2023-05-21T02:32:10.467Z,9.667995
2023-05-21T02:33:10.447Z,9.667985
2023-05-21T02:34:10.501Z,9.667921
2023-05-21T02:35:10.463Z,9.667942
2023-05-21T02:36:11.241Z,9.667918
2023-05-21T02:37:10.630Z,9.667989
2023-05-21T02:38:10.416Z,9.667949
2023-05-21T02:39:10.459Z,9.667931
2023-05-21T02:40:10.430Z,9.667940
2023-05-21T02:41:11.259Z,9.668038
2023-05-21T02:42:10.432Z,9.667997
2023-05-21T02:43:10.392Z,9.667983
2023-05-21T02:44:10.416Z,9.668019
2023-05-21T02:45:10.491Z,9.667937
2023-05-21T02:46:10.404Z,9.667980
2023-05-21T02:47:10.421Z,9.667963
2023-05-21T02:48:10.372Z,9.667976
2023-05-21T02:49:10.303Z,9.667987
2023-05-21T02:50:10.350Z,9.668031
2023-05-21T02:51:10.282Z,9.668003
2023-05-21T02:52:10.318Z,9.667998
2023-05-21T02:53:10.289Z,9.667975
2023-05-21T02:54:10.273Z,9.667983
2023-05-21T02:55:10.266Z,9.667962
2023-05-21T02:56:10.302Z,9.667916
2023-05-21T02:57:10.249Z,9.667938
2023-05-21T02:58:11.265Z,9.667899
2023-05-21T02:59:10.202Z,9.668009
2023-05-21T03:00:10.208Z,9.667986
2023-05-21T03:01:10.317Z,9.667987
2023-05-21T03:02:10.232Z,9.667986
2023-05-21T03:03:10.271Z,9.667974
2023-05-21T03:04:10.225Z,9.667970
2023-05-21T03:05:10.208Z,9.667933
2023-05-21T03:06:10.144Z,9.667949
2023-05-21T03:07:10.197Z,9.667980
2023-05-21T03:08:10.167Z,9.667963
2023-05-21T03:09:10.736Z,9.667998
2023-05-21T03:10:10.117Z,9.667983
2023-05-21T03:11:10.152Z,9.668024
2023-05-21T03:12:10.100Z,9.668003
2023-05-21T03:13:10.220Z,9.668009
2023-05-21T03:14:10.103Z,9.668005
2023-05-21T03:15:10.135Z,9.668021
2023-05-21T03:16:10.194Z,9.668016
2023-05-21T03:17:10.816Z,9.668006
2023-05-21T03:18:10.147Z,9.667991
2023-05-21T03:19:10.157Z,9.667956
2023-05-21T03:20:10.109Z,9.667963
2023-05-21T03:21:10.077Z,9.667995
2023-05-21T03:22:10.077Z,9.667965
2023-05-21T03:23:10.064Z,9.667974
2023-05-21T03:24:09.995Z,9.667974
2023-05-21T03:25:10.027Z,9.667935
2023-05-21T03:26:10.021Z,9.667953
2023-05-21T03:27:09.986Z,9.667992
2023-05-21T03:28:09.999Z,9.667944
2023-05-21T03:29:09.992Z,9.667939
2023-05-21T03:30:10.781Z,9.667952
2023-05-21T03:31:09.959Z,9.667986
2023-05-21T03:32:10.012Z,9.667950
2023-05-21T03:33:09.951Z,9.667934
2023-05-21T03:34:09.919Z,9.667973
2023-05-21T03:35:09.922Z,9.667900
2023-05-21T03:36:09.946Z,9.667959
2023-05-21T03:37:09.909Z,9.667940
2023-05-21T03:38:09.891Z,9.667938
2023-05-21T03:39:09.934Z,9.667973
2023-05-21T03:40:09.891Z,9.667973
2023-05-21T03:41:09.910Z,9.667949
2023-05-21T03:42:09.904Z,9.667978
2023-05-21T03:43:09.947Z,9.667964
2023-05-21T03:44:09.906Z,9.668020
2023-05-21T03:45:09.862Z,9.667984
2023-05-21T03:46:09.918Z,9.667994
2023-05-21T04:11:47.127Z,9.667767
2023-05-21T04:12:47.135Z,9.667926
2023-05-21T04:13:47.144Z,9.667884
2023-05-21T04:14:47.129Z,9.667939
2023-05-21T04:15:47.147Z,9.667878
2023-05-21T04:16:47.095Z,9.667910
2023-05-21T04:17:47.185Z,9.667935
2023-05-21T04:18:47.202Z,9.667946
2023-05-21T04:19:47.108Z,9.667931
2023-05-21T04:20:47.114Z,9.667889
2023-05-21T04:21:47.082Z,9.667949
2023-05-21T04:22:47.037Z,9.667949
2023-05-21T04:23:47.085Z,9.667929
2023-05-21T04:24:47.035Z,9.667964
2023-05-21T04:25:47.212Z,9.668019
2023-05-21T04:26:47.010Z,9.668051
2023-05-21T04:27:46.985Z,9.668011
2023-05-21T04:28:47.013Z,9.668101
2023-05-21T04:29:48.467Z,9.668110
2023-05-21T04:30:47.036Z,9.667973
2023-05-21T04:31:50.467Z,9.667981
2023-05-21T04:32:48.046Z,9.668007
2023-05-21T04:33:46.988Z,9.667979
2023-05-21T04:34:47.773Z,9.667994
2023-05-21T04:35:46.968Z,9.667967
2023-05-21T04:36:47.682Z,9.667986
2023-05-21T04:37:46.914Z,9.667982
2023-05-21T04:38:47.617Z,9.668004
2023-05-21T04:39:47.031Z,9.667976
2023-05-21T04:40:46.905Z,9.667928
2023-05-21T04:41:46.921Z,9.667941
2023-05-21T04:42:46.898Z,9.668010
2023-05-21T04:43:46.864Z,9.668015
2023-05-21T04:44:46.888Z,9.667953
2023-05-21T04:45:46.893Z,9.667999
2023-05-21T04:46:46.866Z,9.667975
2023-05-21T04:47:46.896Z,9.667989
2023-05-21T04:48:47.849Z,9.667967
2023-05-21T04:49:46.812Z,9.667975
2023-05-21T04:50:46.917Z,9.668051
2023-05-21T04:51:46.834Z,9.668026
2023-05-21T04:52:46.833Z,9.668062
2023-05-21T04:53:46.891Z,9.668032
2023-05-21T04:54:48.249Z,9.668084
2023-05-21T04:55:46.774Z,9.668030
2023-05-21T04:56:46.758Z,9.668048
2023-05-21T04:57:46.756Z,9.668110
2023-05-21T04:58:46.773Z,9.668083
2023-05-21T04:59:46.784Z,9.668050
2023-05-21T05:00:47.005Z,9.668051
2023-05-21T05:01:46.786Z,9.668019
2023-05-21T05:02:46.855Z,9.668068
2023-05-21T05:03:46.732Z,9.668016
2023-05-21T05:04:46.767Z,9.668002
2023-05-21T05:05:46.721Z,9.667984
2023-05-21T05:06:47.292Z,9.668065
2023-05-21T05:07:46.706Z,9.667951
2023-05-21T05:08:46.728Z,9.668065
2023-05-21T05:09:46.790Z,9.668099
2023-05-21T05:10:46.786Z,9.668058
2023-05-21T05:11:46.665Z,9.668041
2023-05-21T05:12:46.661Z,9.668056
2023-05-21T05:13:46.673Z,9.668036
2023-05-21T05:14:46.684Z,9.668026
2023-05-21T05:15:48.697Z,9.668065
2023-05-21T05:16:47.717Z,9.667990
2023-05-21T05:17:46.669Z,9.667928
2023-05-21T05:18:47.408Z,9.667965
2023-05-21T05:19:47.330Z,9.667977
2023-05-21T05:20:46.670Z,9.668013
2023-05-21T05:21:47.336Z,9.668015
2023-05-21T05:22:46.584Z,9.668009
2023-05-21T05:23:46.580Z,9.668055
2023-05-21T05:24:46.568Z,9.668030
2023-05-21T05:25:46.554Z,9.668043
2023-05-21T05:26:46.610Z,9.668019
2023-05-21T05:27:46.583Z,9.667965
2023-05-21T05:28:46.548Z,9.667999
2023-05-21T05:29:46.510Z,9.668001
2023-05-21T05:30:46.736Z,9.668020
2023-05-21T05:31:46.538Z,9.668014
2023-05-21T05:32:46.545Z,9.668046
2023-05-21T05:33:46.543Z,9.668094
2023-05-21T05:34:46.484Z,9.668138
2023-05-21T05:35:46.540Z,9.668077
2023-05-21T05:36:46.477Z,9.667941
2023-05-21T05:37:46.470Z,9.668009
2023-05-21T05:38:49.263Z,9.668015
2023-05-21T05:40:19.199Z,9.668021
2023-05-21T05:40:46.475Z,9.668007
2023-05-21T05:41:46.393Z,9.668028
2023-05-21T05:42:47.430Z,9.668046
2023-05-21T05:43:46.421Z,9.668089
2023-05-21T05:44:46.823Z,9.668106
2023-05-21T05:45:46.403Z,9.668079
2023-05-21T05:46:47.359Z,9.668097
2023-05-21T05:47:46.425Z,9.668098
2023-05-21T05:48:46.416Z,9.668039
2023-05-21T05:49:46.388Z,9.668067
2023-05-21T05:50:46.344Z,9.668074
2023-05-21T05:51:46.385Z,9.668050
2023-05-21T05:52:46.382Z,9.668065
2023-05-21T05:53:46.386Z,9.668049
2023-05-21T05:54:46.420Z,9.668065
2023-05-21T05:55:47.474Z,9.668093
2023-05-21T05:56:47.123Z,9.668103
2023-05-21T05:57:46.285Z,9.668041
2023-05-21T05:58:46.622Z,9.668028
2023-05-21T05:59:46.372Z,9.668022
2023-05-21T06:00:46.262Z,9.668082
2023-05-21T06:01:46.460Z,9.668077
2023-05-21T06:02:46.348Z,9.668043
2023-05-21T06:03:46.837Z,9.668113
2023-05-21T06:04:46.319Z,9.668121
2023-05-21T06:05:46.237Z,9.668080
2023-05-21T06:06:46.251Z,9.668090
2023-05-21T06:07:46.316Z,9.668068
2023-05-21T06:08:46.270Z,9.668082
2023-05-21T06:09:46.247Z,9.668107
2023-05-21T06:10:46.775Z,9.668123
2023-05-21T06:11:46.196Z,9.668044
2023-05-21T06:12:46.246Z,9.668076
2023-05-21T06:13:46.260Z,9.668067
2023-05-21T06:14:46.176Z,9.668072
2023-05-21T06:15:46.278Z,9.668082
2023-05-21T06:16:46.230Z,9.668121
2023-05-21T06:17:46.251Z,9.668046
2023-05-21T06:18:46.648Z,9.667995
2023-05-21T06:19:46.165Z,9.667996
2023-05-21T06:20:46.477Z,9.667999
2023-05-21T06:21:46.988Z,9.668032
2023-05-21T06:22:46.129Z,9.667994
2023-05-21T06:23:46.623Z,9.668015
2023-05-21T06:24:46.086Z,9.668028
2023-05-21T06:25:46.119Z,9.668055
2023-05-21T06:26:46.086Z,9.668083
2023-05-21T06:27:46.103Z,9.668031
2023-05-21T06:28:46.138Z,9.668046
2023-05-21T06:29:46.064Z,9.668036
2023-05-21T06:30:46.067Z,9.667990
2023-05-21T06:31:46.078Z,9.668107
2023-05-21T06:32:47.140Z,9.668095
2023-05-21T06:33:46.216Z,9.668077
2023-05-21T06:34:46.087Z,9.668074
2023-05-21T06:35:46.023Z,9.668054
2023-05-21T06:36:46.033Z,9.668097
2023-05-21T06:37:46.037Z,9.668068
2023-05-21T06:38:46.022Z,9.668054
2023-05-21T06:39:45.984Z,9.668043
2023-05-21T06:40:46.014Z,9.668030
2023-05-21T06:41:45.989Z,9.668053
2023-05-21T06:42:45.953Z,9.668015
2023-05-21T06:43:45.959Z,9.668021
2023-05-21T06:44:46.004Z,9.668071
2023-05-21T06:45:45.986Z,9.668014
2023-05-21T06:46:46.969Z,9.668016
2023-05-21T06:47:46.034Z,9.668011
2023-05-21T06:48:45.943Z,9.668007
2023-05-21T06:49:45.956Z,9.667988
2023-05-21T06:50:45.935Z,9.667983
2023-05-21T06:51:45.952Z,9.668025
2023-05-21T06:52:45.891Z,9.668023
2023-05-21T06:53:45.867Z,9.668116
2023-05-21T06:54:45.881Z,9.668076
2023-05-21T06:55:46.003Z,9.668054
2023-05-21T06:56:45.936Z,9.668073
2023-05-21T06:57:45.833Z,9.668054
2023-05-21T06:58:45.913Z,9.668100
2023-05-21T06:59:45.901Z,9.668048
2023-05-21T07:00:45.927Z,9.668028
2023-05-21T07:01:46.381Z,9.668045
2023-05-21T07:02:46.004Z,9.668026
2023-05-21T07:03:46.669Z,9.668012
2023-05-21T07:04:45.923Z,9.668051
2023-05-21T07:05:45.994Z,9.668001
2023-05-21T07:06:45.915Z,9.668025
2023-05-21T07:07:46.527Z,9.668010
2023-05-21T07:08:45.863Z,9.667974
2023-05-21T07:09:45.833Z,9.667987
2023-05-21T07:10:45.828Z,9.668020
2023-05-21T07:11:45.746Z,9.667988
2023-05-21T07:12:45.762Z,9.667980
2023-05-21T07:13:45.801Z,9.667984
2023-05-21T07:14:46.376Z,9.668010
2023-05-21T07:15:45.800Z,9.668014
2023-05-21T07:16:45.819Z,9.668019
2023-05-21T07:17:45.809Z,9.667985
2023-05-21T07:18:45.858Z,9.668014
2023-05-21T07:19:45.758Z,9.668017
2023-05-21T07:20:45.787Z,9.668021
2023-05-21T07:21:45.791Z,9.668087
2023-05-21T07:22:46.412Z,9.667995
2023-05-21T07:23:45.735Z,9.667995
2023-05-21T07:24:45.661Z,9.668028
2023-05-21T07:25:45.681Z,9.668020
2023-05-21T07:26:45.680Z,9.668004
2023-05-21T07:27:45.689Z,9.668021
2023-05-21T07:28:45.655Z,9.668013
2023-05-21T07:29:45.641Z,9.667985
2023-05-21T07:30:45.853Z,9.667999
2023-05-21T07:31:45.672Z,9.667986
2023-05-21T07:32:46.537Z,9.667984
2023-05-21T07:33:45.647Z,9.667977
2023-05-21T07:34:45.644Z,9.667974
2023-05-21T07:35:46.474Z,9.667996
2023-05-21T07:36:45.562Z,9.668049
2023-05-21T07:37:46.429Z,9.668020
2023-05-21T07:38:45.559Z,9.668015
2023-05-21T07:39:45.593Z,9.667949
2023-05-21T07:40:45.598Z,9.667962
2023-05-21T07:41:45.566Z,9.667989
2023-05-21T07:42:45.558Z,9.668033
2023-05-21T07:43:45.712Z,9.668028
2023-05-21T07:44:45.597Z,9.668035
2023-05-21T07:45:45.560Z,9.668024
2023-05-21T07:46:45.765Z,9.667971
2023-05-21T07:47:45.592Z,9.667961
2023-05-21T07:48:47.397Z,9.667975
2023-05-21T07:49:45.457Z,9.668079
2023-05-21T07:50:45.443Z,9.667980
2023-05-21T07:51:45.462Z,9.668057
2023-05-21T07:52:45.566Z,9.668045
2023-05-21T07:53:45.417Z,9.668013
2023-05-21T07:54:45.446Z,9.668044
2023-05-21T07:55:45.422Z,9.667997
2023-05-21T07:56:45.385Z,9.668067
2023-05-21T07:57:45.435Z,9.668012
2023-05-21T07:58:45.368Z,9.668016
2023-05-21T07:59:45.386Z,9.668041
2023-05-21T08:00:45.364Z,9.668029
2023-05-21T08:01:45.356Z,9.668021
2023-05-21T08:02:45.468Z,9.668014
2023-05-21T08:03:45.446Z,9.668026
2023-05-21T08:04:45.441Z,9.668050
2023-05-21T08:05:45.359Z,9.668054
2023-05-21T08:06:45.360Z,9.668011
2023-05-21T08:07:45.377Z,9.668045
2023-05-21T08:08:45.325Z,9.668056
2023-05-21T08:09:45.326Z,9.668059
2023-05-21T08:10:45.306Z,9.668045
2023-05-21T08:11:45.306Z,9.668024
2023-05-21T08:12:45.339Z,9.667999
2023-05-21T08:13:45.314Z,9.667987
2023-05-21T08:14:45.283Z,9.668024
2023-05-21T08:15:45.286Z,9.668051
2023-05-21T08:16:45.368Z,9.668056
2023-05-21T08:17:45.363Z,9.668017
2023-05-21T08:18:45.279Z,9.668050
2023-05-21T08:19:45.251Z,9.668018
2023-05-21T08:20:45.254Z,9.668096
2023-05-21T08:21:45.283Z,9.668077
2023-05-21T08:22:45.268Z,9.668081
2023-05-21T08:23:46.321Z,9.668019
2023-05-21T08:24:45.259Z,9.668078
2023-05-21T08:25:45.285Z,9.668069
2023-05-21T08:26:45.161Z,9.668035
2023-05-21T08:27:45.191Z,9.668038
2023-05-21T08:28:45.145Z,9.668040
2023-05-21T08:29:45.198Z,9.668050
2023-05-21T08:30:45.152Z,9.668061
2023-05-21T08:31:45.193Z,9.668074
2023-05-21T08:32:45.218Z,9.668065
2023-05-21T08:33:45.435Z,9.668084
2023-05-21T08:34:45.165Z,9.668078
2023-05-21T08:35:45.107Z,9.668063
2023-05-21T08:37:18.080Z,9.668054
2023-05-21T08:37:45.156Z,9.668044
2023-05-21T08:38:45.108Z,9.667974
2023-05-21T08:39:45.095Z,9.667997
2023-05-21T08:40:45.077Z,9.667999
2023-05-21T08:41:45.078Z,9.668015
2023-05-21T08:42:45.098Z,9.668050
2023-05-21T08:43:45.061Z,9.668042
2023-05-21T08:44:45.100Z,9.668024
2023-05-21T08:45:45.043Z,9.668015
2023-05-21T08:46:45.028Z,9.668075
2023-05-21T08:47:45.042Z,9.668027
2023-05-21T08:48:45.035Z,9.668066
2023-05-21T08:50:17.900Z,9.668054
2023-05-21T08:50:45.000Z,9.668073
2023-05-21T08:51:45.948Z,9.668069
2023-05-21T08:52:44.959Z,9.668037
2023-05-21T08:53:44.989Z,9.668018
2023-05-21T08:54:45.022Z,9.668012
2023-05-21T08:55:44.996Z,9.668048
2023-05-21T08:56:45.426Z,9.668010
2023-05-21T08:57:44.975Z,9.668009
2023-05-21T08:58:44.952Z,9.668028
2023-05-21T08:59:44.932Z,9.668020
2023-05-21T09:00:44.899Z,9.668040
2023-05-21T09:01:46.051Z,9.668040
2023-05-21T09:02:44.953Z,9.668008
2023-05-21T09:03:44.945Z,9.668018
2023-05-21T09:04:44.961Z,9.668001
2023-05-21T09:05:44.887Z,9.668021
2023-05-21T09:06:44.884Z,9.668040
2023-05-21T09:07:44.888Z,9.668030
2023-05-21T09:08:44.873Z,9.668014
2023-05-21T09:09:44.887Z,9.668037
2023-05-21T09:10:44.887Z,9.668052
2023-05-21T09:11:44.844Z,9.668016
2023-05-21T09:12:44.838Z,9.668022
2023-05-21T09:13:44.833Z,9.668037
2023-05-21T09:14:44.859Z,9.668028
2023-05-21T09:15:44.778Z,9.668013
2023-05-21T09:16:44.821Z,9.668025
2023-05-21T09:17:44.845Z,9.668033
2023-05-21T09:18:44.803Z,9.668041
2023-05-21T09:19:44.784Z,9.668022
2023-05-21T09:20:44.758Z,9.668010
2023-05-21T09:21:44.800Z,9.668045
2023-05-21T09:22:44.777Z,9.668052
2023-05-21T09:23:44.761Z,9.668057
2023-05-21T09:24:44.838Z,9.668045
2023-05-21T09:25:44.748Z,9.668067
2023-05-21T09:26:44.744Z,9.668070
2023-05-21T09:27:44.732Z,9.668081
2023-05-21T09:28:44.735Z,9.668083
2023-05-21T09:29:44.713Z,9.668071
2023-05-21T09:30:44.764Z,9.668048
2023-05-21T09:31:44.808Z,9.668061
2023-05-21T09:32:44.704Z,9.668019
2023-05-21T09:33:44.682Z,9.668054
2023-05-21T09:34:44.651Z,9.668031
2023-05-21T09:35:44.703Z,9.668052
2023-05-21T09:36:44.673Z,9.668051
2023-05-21T09:37:44.695Z,9.668038
2023-05-21T09:38:44.710Z,9.668022
2023-05-21T09:39:44.637Z,9.668044
2023-05-21T09:40:44.693Z,9.668081
2023-05-21T09:41:44.639Z,9.668048
2023-05-21T09:42:44.664Z,9.668070
2023-05-21T09:43:44.666Z,9.668056
2023-05-21T09:44:44.626Z,9.668066
2023-05-21T09:45:44.628Z,9.668000
2023-05-21T09:46:44.663Z,9.667994
2023-05-21T09:47:44.683Z,9.668026
2023-05-21T09:48:44.560Z,9.667955
2023-05-21T09:49:44.540Z,9.668010
2023-05-21T09:50:44.551Z,9.668031
2023-05-21T09:51:44.560Z,9.668040
2023-05-21T09:52:44.580Z,9.668006
2023-05-21T09:53:44.569Z,9.668012
2023-05-21T09:54:45.415Z,9.668037
2023-05-21T09:55:44.559Z,9.668024
2023-05-21T09:56:44.577Z,9.668007
2023-05-21T09:57:44.518Z,9.668056
2023-05-21T09:58:44.513Z,9.667993
2023-05-21T09:59:44.545Z,9.667992
2023-05-21T10:00:44.530Z,9.668024
2023-05-21T10:01:44.527Z,9.668097
2023-05-21T10:02:44.595Z,9.668058
2023-05-21T10:03:44.520Z,9.668069
2023-05-21T10:04:44.554Z,9.668047
2023-05-21T10:05:44.454Z,9.668059
2023-05-21T10:06:44.478Z,9.668035
2023-05-21T10:07:44.475Z,9.668050
2023-05-21T10:08:44.427Z,9.668044
2023-05-21T10:09:44.473Z,9.668044
2023-05-21T10:10:44.433Z,9.668021
2023-05-21T10:11:44.444Z,9.668015
2023-05-21T10:12:44.402Z,9.668001
2023-05-21T10:13:44.388Z,9.668048
2023-05-21T10:14:44.393Z,9.668005
2023-05-21T10:15:44.445Z,9.668060
2023-05-21T10:16:44.578Z,9.668077
2023-05-21T10:17:44.444Z,9.668048
2023-05-21T10:18:44.431Z,9.668056
2023-05-21T10:19:44.352Z,9.668039
2023-05-21T10:20:44.372Z,9.668011
2023-05-21T10:21:44.355Z,9.668032
2023-05-21T10:22:44.324Z,9.668019
2023-05-21T10:23:45.337Z,9.668017
2023-05-21T10:24:44.342Z,9.667992
2023-05-21T10:25:44.448Z,9.667994
2023-05-21T10:26:44.293Z,9.668012
2023-05-21T10:27:44.308Z,9.668014
2023-05-21T10:28:44.361Z,9.667995
2023-05-21T10:29:44.329Z,9.667983
2023-05-21T10:30:44.311Z,9.667979
2023-05-21T10:31:44.305Z,9.667964
2023-05-21T10:32:44.380Z,9.667986
2023-05-21T10:33:44.255Z,9.667953
2023-05-21T10:34:44.245Z,9.667935
2023-05-21T10:35:44.245Z,9.667940
2023-05-21T10:36:44.274Z,9.667988
2023-05-21T10:37:44.210Z,9.667984
2023-05-21T10:38:44.211Z,9.667997
2023-05-21T10:39:44.226Z,9.667924
2023-05-21T10:40:44.198Z,9.667951
2023-05-21T10:41:44.189Z,9.667941
2023-05-21T10:42:44.199Z,9.667928
2023-05-21T10:43:44.190Z,9.667974
2023-05-21T10:44:44.189Z,9.667981
2023-05-21T10:45:44.249Z,9.667948
2023-05-21T10:46:44.221Z,9.667938
2023-05-21T10:47:44.196Z,9.667968
2023-05-21T10:48:44.189Z,9.667950
2023-05-21T10:49:44.167Z,9.667990
2023-05-21T10:50:44.125Z,9.667995
2023-05-21T10:51:44.155Z,9.667984
2023-05-21T10:52:44.126Z,9.667961
2023-05-21T10:53:44.164Z,9.667966
2023-05-21T10:54:44.101Z,9.668009
2023-05-21T10:55:44.070Z,9.667983
2023-05-21T10:56:44.172Z,9.667963
2023-05-21T10:57:44.166Z,9.667969
2023-05-21T10:58:46.972Z,9.667969
2023-05-21T10:59:44.105Z,9.668041
2023-05-21T11:00:44.081Z,9.668022
2023-05-21T11:01:44.157Z,9.668023
2023-05-21T11:02:44.198Z,9.668012
2023-05-21T11:03:44.201Z,9.668043
2023-05-21T11:04:44.045Z,9.668010
2023-05-21T11:05:44.044Z,9.668013
2023-05-21T11:06:44.086Z,9.668027
2023-05-21T11:07:44.000Z,9.668003
2023-05-21T11:08:44.020Z,9.668011
2023-05-21T11:09:43.997Z,9.668049
2023-05-21T11:10:43.988Z,9.668039
2023-05-21T11:11:44.051Z,9.668041
2023-05-21T11:12:43.996Z,9.667988
2023-05-21T11:13:44.011Z,9.667962
2023-05-21T11:14:43.982Z,9.667979
2023-05-21T11:15:43.998Z,9.667953
2023-05-21T11:16:43.969Z,9.667992
2023-05-21T11:17:44.003Z,9.667974
2023-05-21T11:18:43.940Z,9.668019
2023-05-21T11:19:44.086Z,9.667988
2023-05-21T11:20:43.909Z,9.668007
2023-05-21T11:21:43.981Z,9.668013
2023-05-21T11:22:44.022Z,9.667975
2023-05-21T11:23:43.894Z,9.667987
2023-05-21T11:24:43.956Z,9.667979
2023-05-21T11:25:43.899Z,9.667980
2023-05-21T11:26:43.894Z,9.667985
2023-05-21T11:27:43.906Z,9.668018
2023-05-21T11:28:43.871Z,9.667962
2023-05-21T11:29:43.889Z,9.667964
2023-05-21T11:30:43.974Z,9.667967
2023-05-21T11:31:43.996Z,9.667976
2023-05-21T11:32:43.898Z,9.667964
2023-05-21T11:33:43.811Z,9.667988
2023-05-21T11:34:43.890Z,9.667989
2023-05-21T11:35:43.818Z,9.668011
2023-05-21T11:36:43.813Z,9.667996
2023-05-21T11:37:43.877Z,9.667976
2023-05-21T11:38:43.831Z,9.668007
2023-05-21T11:39:43.862Z,9.667972
2023-05-21T11:40:43.799Z,9.667999
2023-05-21T11:41:43.812Z,9.667981
2023-05-21T11:42:43.763Z,9.667983
2023-05-21T11:43:43.784Z,9.667993
2023-05-21T11:44:44.791Z,9.667985
2023-05-21T11:45:43.755Z,9.667984
2023-05-21T11:46:43.761Z,9.667964
2023-05-21T11:47:43.781Z,9.667986
2023-05-21T11:48:43.741Z,9.667980
2023-05-21T11:49:43.760Z,9.667965
2023-05-21T11:50:43.730Z,9.667963
2023-05-21T11:51:43.709Z,9.667983
2023-05-21T11:52:43.683Z,9.668009
2023-05-21T11:53:44.292Z,9.667983
2023-05-21T11:54:44.735Z,9.667988
2023-05-21T11:55:43.925Z,9.667989
2023-05-21T11:56:43.714Z,9.668016
2023-05-21T11:57:43.702Z,9.668007
2023-05-21T11:58:43.679Z,9.667981
2023-05-21T11:59:43.653Z,9.667969
2023-05-21T12:00:43.689Z,9.667992
2023-05-21T12:01:43.684Z,9.667948
2023-05-21T12:02:43.660Z,9.667985
2023-05-21T12:03:43.749Z,9.667962
2023-05-21T12:04:43.613Z,9.667967
2023-05-21T12:05:43.652Z,9.667997
2023-05-21T12:06:43.616Z,9.668005
2023-05-21T12:07:43.585Z,9.667994
2023-05-21T12:08:43.570Z,9.667982